sensor_id;sensor_type;location;lat;lon;timestamp;P1;P2;P0
64861;PMS5003;62652;42.274;-71.436;2024-01-30T00:00:00;0.60;0.53;0.00
64861;PMS5003;62652;42.274;-71.436;2024-01-30T00:01:00;1.40;0.10;0.00
64861;PMS5003;62652;42.274;-71.436;2024-01-30T00:02:00;0.67;0.63;0.00
64861;PMS5003;62652;42.274;-71.436;2024-01-30T00:03:00;0.00;0.00;0.00
64861;PMS5003;62652;42.274;-71.436;2024-01-30T00:04:00;0.03;0.03;0.00
64861;PMS5003;62652;42.274;-71.436;2024-01-30T00:05:00;0.47;0.47;0.07
64861;PMS5003;62652;42.274;-71.436;2024-01-30T00:06:00;0.80;0.80;0.00
64861;PMS5003;62652;42.274;-71.436;2024-01-30T00:07:00;0.00;0.00;0.00
64861;PMS5003;62652;42.274;-71.436;2024-01-30T00:08:00;1.47;0.83;0.00
64861;PMS5003;62652;42.274;-71.436;2024-01-30T00:09:00;0.77;0.77;0.20
64861;PMS5003;62652;42.274;-71.436;2024-01-30T00:10:00;0.00;0.00;0.00
64861;PMS5003;62652;42.274;-71.436;2024-01-30T00:11:00;0.43;0.43;0.00
64861;PMS5003;62652;42.274;-71.436;2024-01-30T00:12:00;1.37;0.43;0.00
64861;PMS5003;62652;42.274;-71.436;2024-01-30T00:13:00;0.87;0.83;0.00
64861;PMS5003;62652;42.274;-71.436;2024-01-30T00:14:00;1.10;1.03;0.63
64861;PMS5003;62652;42.274;-71.436;2024-01-30T00:15:00;0.33;0.00;0.00
64861;PMS5003;62652;42.274;-71.436;2024-01-30T00:16:00;0.53;0.53;0.00
64861;PMS5003;62652;42.274;-71.436;2024-01-30T00:17:00;0.83;0.00;0.00
64861;PMS5003;62652;42.274;-71.436;2024-01-30T00:18:00;0.00;0.00;0.00
64861;PMS5003;62652;42.274;-71.436;2024-01-30T00:19:00;0.17;0.00;0.00
64861;PMS5003;62652;42.274;-71.436;2024-01-30T00:20:00;0.60;0.33;0.20
64861;PMS5003;62652;42.274;-71.436;2024-01-30T00:21:00;0.57;0.00;0.00
64861;PMS5003;62652;42.274;-71.436;2024-01-30T00:22:00;1.00;0.27;0.00
64861;PMS5003;62652;42.274;-71.436;2024-01-30T00:23:00;0.00;0.00;0.00
64861;PMS5003;62652;42.274;-71.436;2024-01-30T00:24:00;0.83;0.37;0.20
64861;PMS5003;62652;42.274;-71.436;2024-01-30T00:25:00;0.93;0.93;0.00
64861;PMS5003;62652;42.274;-71.436;2024-01-30T00:26:00;0.90;0.90;0.00
64861;PMS5003;62652;42.274;-71.436;2024-01-30T00:27:00;0.00;0.00;0.00
64861;PMS5003;62652;42.274;-71.436;2024-01-30T00:28:00;1.17;0.83;0.00
64861;PMS5003;62652;42.274;-71.436;2024-01-30T00:29:00;0.37;0.20;0.00
64861;PMS5003;62652;42.274;-71.436;2024-01-30T00:30:00;0.43;0.10;0.00
64861;PMS5003;62652;42.274;-71.436;2024-01-30T00:31:00;0.00;0.00;0.00
64861;PMS5003;62652;42.274;-71.436;2024-01-30T00:32:00;0.00;0.00;0.00
64861;PMS5003;62652;42.274;-71.436;2024-01-30T00:33:00;0.00;0.00;0.00
64861;PMS5003;62652;42.274;-71.436;2024-01-30T00:34:00;0.83;0.40;0.00
64861;PMS5003;62652;42.274;-71.436;2024-01-30T00:35:00;0.03;0.03;0.00
64861;PMS5003;62652;42.274;-71.436;2024-01-30T00:36:00;1.30;1.30;0.73
64861;PMS5003;62652;42.274;-71.436;2024-01-30T00:37:00;1.00;1.00;0.40
64861;PMS5003;62652;42.274;-71.436;2024-01-30T00:38:00;0.80;0.80;0.00
64861;PMS5003;62652;42.274;-71.436;2024-01-30T00:39:00;1.03;1.03;0.23
64861;PMS5003;62652;42.274;-71.436;2024-01-30T00:40:00;1.77;1.77;0.80
64861;PMS5003;62652;42.274;-71.436;2024-01-30T00:41:00;1.67;1.23;0.50
64861;PMS5003;62652;42.274;-71.436;2024-01-30T00:42:00;1.10;1.10;0.80
64861;PMS5003;62652;42.274;-71.436;2024-01-30T00:43:00;1.97;1.97;1.17
64861;PMS5003;62652;42.274;-71.436;2024-01-30T00:44:00;2.47;2.47;1.97
64861;PMS5003;62652;42.274;-71.436;2024-01-30T00:45:00;2.60;2.40;1.27
64861;PMS5003;62652;42.274;-71.436;2024-01-30T00:46:00;1.43;1.43;1.00
64861;PMS5003;62652;42.274;-71.436;2024-01-30T00:47:00;1.90;1.80;1.00
64861;PMS5003;62652;42.274;-71.436;2024-01-30T00:48:00;2.00;1.53;1.00
64861;PMS5003;62652;42.274;-71.436;2024-01-30T00:49:00;2.00;2.00;1.00
64861;PMS5003;62652;42.274;-71.436;2024-01-30T00:50:00;2.33;2.00;1.00
64861;PMS5003;62652;42.274;-71.436;2024-01-30T00:51:00;2.67;2.50;1.77
64861;PMS5003;62652;42.274;-71.436;2024-01-30T00:52:00;5.53;4.93;3.07
64861;PMS5003;62652;42.274;-71.436;2024-01-30T00:53:00;4.63;4.63;2.33
64861;PMS5003;62652;42.274;-71.436;2024-01-30T00:54:00;4.00;4.00;2.40
64861;PMS5003;62652;42.274;-71.436;2024-01-30T00:55:00;5.43;5.10;3.00
64861;PMS5003;62652;42.274;-71.436;2024-01-30T00:56:00;4.73;4.73;2.33
64861;PMS5003;62652;42.274;-71.436;2024-01-30T00:57:00;3.33;3.33;2.00
64861;PMS5003;62652;42.274;-71.436;2024-01-30T00:58:00;4.13;3.27;2.00
64861;PMS5003;62652;42.274;-71.436;2024-01-30T00:59:00;2.67;2.43;1.53
64861;PMS5003;62652;42.274;-71.436;2024-01-30T01:00:00;4.33;3.00;1.50
64861;PMS5003;62652;42.274;-71.436;2024-01-30T01:01:00;5.17;3.43;1.63
64861;PMS5003;62652;42.274;-71.436;2024-01-30T01:02:00;3.73;3.17;1.77
64861;PMS5003;62652;42.274;-71.436;2024-01-30T01:03:00;3.73;3.73;2.33
64861;PMS5003;62652;42.274;-71.436;2024-01-30T01:04:00;3.00;3.00;2.10
64861;PMS5003;62652;42.274;-71.436;2024-01-30T01:05:00;4.50;4.07;1.70
64861;PMS5003;62652;42.274;-71.436;2024-01-30T01:06:00;2.97;2.97;1.87
64861;PMS5003;62652;42.274;-71.436;2024-01-30T01:07:00;3.93;3.73;2.83
64861;PMS5003;62652;42.274;-71.436;2024-01-30T01:08:00;2.77;2.37;1.90
64861;PMS5003;62652;42.274;-71.436;2024-01-30T01:09:00;2.67;2.43;0.97
64861;PMS5003;62652;42.274;-71.436;2024-01-30T01:10:00;4.50;4.00;1.77
64861;PMS5003;62652;42.274;-71.436;2024-01-30T01:11:00;3.50;3.17;2.07
64861;PMS5003;62652;42.274;-71.436;2024-01-30T01:12:00;3.17;3.17;2.10
64861;PMS5003;62652;42.274;-71.436;2024-01-30T01:13:00;3.97;3.73;2.13
64861;PMS5003;62652;42.274;-71.436;2024-01-30T01:14:00;2.80;2.47;1.70
64861;PMS5003;62652;42.274;-71.436;2024-01-30T01:15:00;2.80;2.47;1.57
64861;PMS5003;62652;42.274;-71.436;2024-01-30T01:16:00;2.90;2.67;1.23
64861;PMS5003;62652;42.274;-71.436;2024-01-30T01:17:00;3.93;3.37;2.00
64861;PMS5003;62652;42.274;-71.436;2024-01-30T01:18:00;4.47;3.00;1.17
64861;PMS5003;62652;42.274;-71.436;2024-01-30T01:19:00;4.07;3.57;1.97
64861;PMS5003;62652;42.274;-71.436;2024-01-30T01:20:00;4.30;3.77;2.47
64861;PMS5003;62652;42.274;-71.436;2024-01-30T01:21:00;5.70;4.33;2.77
64861;PMS5003;62652;42.274;-71.436;2024-01-30T01:22:00;4.13;4.07;2.37
64861;PMS5003;62652;42.274;-71.436;2024-01-30T01:23:00;3.50;3.03;1.80
64861;PMS5003;62652;42.274;-71.436;2024-01-30T01:24:00;3.73;3.73;2.00
64861;PMS5003;62652;42.274;-71.436;2024-01-30T01:25:00;4.03;3.87;2.07
64861;PMS5003;62652;42.274;-71.436;2024-01-30T01:26:00;3.80;3.33;1.63
64861;PMS5003;62652;42.274;-71.436;2024-01-30T01:27:00;4.53;3.53;1.90
64861;PMS5003;62652;42.274;-71.436;2024-01-30T01:28:00;4.53;4.53;2.63
64861;PMS5003;62652;42.274;-71.436;2024-01-30T01:29:00;4.87;4.87;2.97
64861;PMS5003;62652;42.274;-71.436;2024-01-30T01:30:00;3.73;3.27;2.20
64861;PMS5003;62652;42.274;-71.436;2024-01-30T01:31:00;5.57;5.30;3.40
64861;PMS5003;62652;42.274;-71.436;2024-01-30T01:32:00;5.03;4.03;2.43
64861;PMS5003;62652;42.274;-71.436;2024-01-30T01:33:00;5.40;4.37;2.50
64861;PMS5003;62652;42.274;-71.436;2024-01-30T01:34:00;5.67;5.43;2.93
64861;PMS5003;62652;42.274;-71.436;2024-01-30T01:35:00;5.13;5.13;2.77
64861;PMS5003;62652;42.274;-71.436;2024-01-30T01:36:00;5.30;5.00;3.00
64861;PMS5003;62652;42.274;-71.436;2024-01-30T01:37:00;4.80;4.80;3.57
64861;PMS5003;62652;42.274;-71.436;2024-01-30T01:38:00;4.10;3.87;2.37
64861;PMS5003;62652;42.274;-71.436;2024-01-30T01:39:00;4.13;3.93;2.83
64861;PMS5003;62652;42.274;-71.436;2024-01-30T01:40:00;5.33;4.43;2.20
64861;PMS5003;62652;42.274;-71.436;2024-01-30T01:41:00;5.00;4.00;2.90
64861;PMS5003;62652;42.274;-71.436;2024-01-30T01:42:00;5.53;4.47;3.00
64861;PMS5003;62652;42.274;-71.436;2024-01-30T01:43:02;5.00;4.53;2.90
64861;PMS5003;62652;42.274;-71.436;2024-01-30T01:44:00;3.57;3.57;2.10
64861;PMS5003;62652;42.274;-71.436;2024-01-30T01:45:00;4.40;3.90;2.03
64861;PMS5003;62652;42.274;-71.436;2024-01-30T01:46:00;5.97;4.97;3.30
64861;PMS5003;62652;42.274;-71.436;2024-01-30T01:47:00;5.20;5.20;2.70
64861;PMS5003;62652;42.274;-71.436;2024-01-30T01:48:00;6.03;5.27;3.40
64861;PMS5003;62652;42.274;-71.436;2024-01-30T01:49:00;5.30;4.77;3.53
64861;PMS5003;62652;42.274;-71.436;2024-01-30T01:50:00;5.37;4.60;2.87
64861;PMS5003;62652;42.274;-71.436;2024-01-30T01:51:00;4.57;4.37;2.80
64861;PMS5003;62652;42.274;-71.436;2024-01-30T01:52:00;5.67;5.07;3.27
64861;PMS5003;62652;42.274;-71.436;2024-01-30T01:53:00;5.40;4.97;3.00
64861;PMS5003;62652;42.274;-71.436;2024-01-30T01:54:01;6.77;5.80;2.63
64861;PMS5003;62652;42.274;-71.436;2024-01-30T01:55:00;6.70;5.37;2.80
64861;PMS5003;62652;42.274;-71.436;2024-01-30T01:56:00;8.33;7.03;4.00
64861;PMS5003;62652;42.274;-71.436;2024-01-30T01:57:00;7.20;6.87;4.10
64861;PMS5003;62652;42.274;-71.436;2024-01-30T01:58:00;8.17;6.60;3.30
64861;PMS5003;62652;42.274;-71.436;2024-01-30T01:59:03;7.83;6.50;3.77
64861;PMS5003;62652;42.274;-71.436;2024-01-30T02:00:00;10.67;7.73;4.00
64861;PMS5003;62652;42.274;-71.436;2024-01-30T02:01:00;7.67;5.63;3.20
64861;PMS5003;62652;42.274;-71.436;2024-01-30T02:02:00;7.33;7.33;3.80
64861;PMS5003;62652;42.274;-71.436;2024-01-30T02:03:00;6.70;5.73;3.00
64861;PMS5003;62652;42.274;-71.436;2024-01-30T02:04:00;5.37;5.37;3.33
64861;PMS5003;62652;42.274;-71.436;2024-01-30T02:05:00;8.53;8.53;3.90
64861;PMS5003;62652;42.274;-71.436;2024-01-30T02:06:00;7.50;6.57;4.20
64861;PMS5003;62652;42.274;-71.436;2024-01-30T02:07:00;8.50;6.90;4.90
64861;PMS5003;62652;42.274;-71.436;2024-01-30T02:08:00;5.73;5.00;2.40
64861;PMS5003;62652;42.274;-71.436;2024-01-30T02:09:00;6.53;5.90;3.90
64861;PMS5003;62652;42.274;-71.436;2024-01-30T02:10:00;7.07;6.13;3.57
64861;PMS5003;62652;42.274;-71.436;2024-01-30T02:11:00;7.20;6.77;3.80
64861;PMS5003;62652;42.274;-71.436;2024-01-30T02:12:00;5.50;5.10;3.40
64861;PMS5003;62652;42.274;-71.436;2024-01-30T02:13:00;8.00;6.70;3.97
64861;PMS5003;62652;42.274;-71.436;2024-01-30T02:14:02;6.90;6.17;3.87
64861;PMS5003;62652;42.274;-71.436;2024-01-30T02:15:00;7.60;6.40;3.80
64861;PMS5003;62652;42.274;-71.436;2024-01-30T02:16:00;7.90;6.37;3.77
64861;PMS5003;62652;42.274;-71.436;2024-01-30T02:17:00;5.87;5.43;3.47
64861;PMS5003;62652;42.274;-71.436;2024-01-30T02:18:00;7.00;6.13;3.50
64861;PMS5003;62652;42.274;-71.436;2024-01-30T02:19:00;7.70;6.87;3.77
64861;PMS5003;62652;42.274;-71.436;2024-01-30T02:20:00;9.50;6.77;3.90
64861;PMS5003;62652;42.274;-71.436;2024-01-30T02:21:03;7.23;6.37;3.33
64861;PMS5003;62652;42.274;-71.436;2024-01-30T02:22:00;6.43;5.93;3.83
64861;PMS5003;62652;42.274;-71.436;2024-01-30T02:23:00;6.23;6.03;3.87
64861;PMS5003;62652;42.274;-71.436;2024-01-30T02:24:00;6.20;5.57;3.00
64861;PMS5003;62652;42.274;-71.436;2024-01-30T02:25:00;7.13;5.83;3.53
64861;PMS5003;62652;42.274;-71.436;2024-01-30T02:26:00;7.37;6.27;3.30
64861;PMS5003;62652;42.274;-71.436;2024-01-30T02:27:00;6.10;5.67;3.27
64861;PMS5003;62652;42.274;-71.436;2024-01-30T02:28:00;6.57;5.60;3.90
64861;PMS5003;62652;42.274;-71.436;2024-01-30T02:29:00;5.97;5.90;4.20
64861;PMS5003;62652;42.274;-71.436;2024-01-30T02:30:00;5.07;5.00;3.10
64861;PMS5003;62652;42.274;-71.436;2024-01-30T02:31:00;7.97;7.43;3.70
64861;PMS5003;62652;42.274;-71.436;2024-01-30T02:32:00;4.23;4.23;3.10
64861;PMS5003;62652;42.274;-71.436;2024-01-30T02:33:00;5.27;5.17;2.63
64861;PMS5003;62652;42.274;-71.436;2024-01-30T02:34:00;9.23;6.47;3.20
64861;PMS5003;62652;42.274;-71.436;2024-01-30T02:35:00;5.73;5.73;3.00
64861;PMS5003;62652;42.274;-71.436;2024-01-30T02:36:00;5.53;5.30;3.00
64861;PMS5003;62652;42.274;-71.436;2024-01-30T02:37:00;6.10;4.90;3.70
64861;PMS5003;62652;42.274;-71.436;2024-01-30T02:38:00;6.10;4.87;3.13
64861;PMS5003;62652;42.274;-71.436;2024-01-30T02:39:00;5.10;4.63;3.27
64861;PMS5003;62652;42.274;-71.436;2024-01-30T02:40:00;7.37;5.37;3.10
64861;PMS5003;62652;42.274;-71.436;2024-01-30T02:41:00;7.27;6.60;3.80
64861;PMS5003;62652;42.274;-71.436;2024-01-30T02:42:00;7.73;5.50;3.17
64861;PMS5003;62652;42.274;-71.436;2024-01-30T02:43:01;6.20;5.43;2.80
64861;PMS5003;62652;42.274;-71.436;2024-01-30T02:44:00;5.37;4.83;2.33
64861;PMS5003;62652;42.274;-71.436;2024-01-30T02:45:00;8.10;7.63;3.87
64861;PMS5003;62652;42.274;-71.436;2024-01-30T02:46:00;5.67;5.27;3.00
64861;PMS5003;62652;42.274;-71.436;2024-01-30T02:47:00;5.27;5.27;3.00
64861;PMS5003;62652;42.274;-71.436;2024-01-30T02:48:00;8.37;6.47;3.17
64861;PMS5003;62652;42.274;-71.436;2024-01-30T02:49:00;9.20;7.87;4.57
64861;PMS5003;62652;42.274;-71.436;2024-01-30T02:50:00;5.90;5.47;3.30
64861;PMS5003;62652;42.274;-71.436;2024-01-30T02:51:00;6.37;5.97;3.60
64861;PMS5003;62652;42.274;-71.436;2024-01-30T02:52:00;6.30;6.07;3.87
64861;PMS5003;62652;42.274;-71.436;2024-01-30T02:53:00;8.37;8.00;3.53
64861;PMS5003;62652;42.274;-71.436;2024-01-30T02:54:00;5.00;4.33;2.20
64861;PMS5003;62652;42.274;-71.436;2024-01-30T02:55:00;6.23;5.13;3.00
64861;PMS5003;62652;42.274;-71.436;2024-01-30T02:56:02;5.53;4.57;2.60
64861;PMS5003;62652;42.274;-71.436;2024-01-30T02:57:00;8.00;8.00;2.97
64861;PMS5003;62652;42.274;-71.436;2024-01-30T02:58:00;4.97;4.13;2.67
64861;PMS5003;62652;42.274;-71.436;2024-01-30T02:59:00;5.80;5.27;3.53
64861;PMS5003;62652;42.274;-71.436;2024-01-30T03:00:00;5.50;5.50;3.40
64861;PMS5003;62652;42.274;-71.436;2024-01-30T03:01:00;6.63;5.53;3.20
64861;PMS5003;62652;42.274;-71.436;2024-01-30T03:02:00;6.93;6.23;3.43
64861;PMS5003;62652;42.274;-71.436;2024-01-30T03:03:00;4.80;4.80;2.70
64861;PMS5003;62652;42.274;-71.436;2024-01-30T03:04:00;6.57;4.77;2.67
64861;PMS5003;62652;42.274;-71.436;2024-01-30T03:05:00;5.67;4.43;2.13
64861;PMS5003;62652;42.274;-71.436;2024-01-30T03:06:00;4.23;4.03;3.00
64861;PMS5003;62652;42.274;-71.436;2024-01-30T03:07:00;8.00;5.77;3.57
64861;PMS5003;62652;42.274;-71.436;2024-01-30T03:08:00;7.17;5.40;2.80
64861;PMS5003;62652;42.274;-71.436;2024-01-30T03:09:00;4.53;4.53;2.63
64861;PMS5003;62652;42.274;-71.436;2024-01-30T03:10:00;5.60;5.33;2.00
64861;PMS5003;62652;42.274;-71.436;2024-01-30T03:11:00;5.10;4.90;2.63
64861;PMS5003;62652;42.274;-71.436;2024-01-30T03:12:00;5.63;5.57;3.30
64861;PMS5003;62652;42.274;-71.436;2024-01-30T03:13:00;5.37;5.37;3.57
64861;PMS5003;62652;42.274;-71.436;2024-01-30T03:14:00;5.73;5.00;2.97
64861;PMS5003;62652;42.274;-71.436;2024-01-30T03:15:00;5.77;4.67;2.43
64861;PMS5003;62652;42.274;-71.436;2024-01-30T03:16:00;5.73;4.73;2.87
64861;PMS5003;62652;42.274;-71.436;2024-01-30T03:17:00;4.57;4.40;3.00
64861;PMS5003;62652;42.274;-71.436;2024-01-30T03:18:01;4.77;3.50;2.27
64861;PMS5003;62652;42.274;-71.436;2024-01-30T03:19:00;4.33;3.83;2.33
64861;PMS5003;62652;42.274;-71.436;2024-01-30T03:20:00;5.80;5.00;3.17
64861;PMS5003;62652;42.274;-71.436;2024-01-30T03:21:00;5.77;4.70;2.57
64861;PMS5003;62652;42.274;-71.436;2024-01-30T03:22:00;4.70;4.30;2.00
64861;PMS5003;62652;42.274;-71.436;2024-01-30T03:23:00;5.80;4.77;3.00
64861;PMS5003;62652;42.274;-71.436;2024-01-30T03:24:00;5.70;5.50;3.53
64861;PMS5003;62652;42.274;-71.436;2024-01-30T03:25:00;5.07;5.00;3.00
64861;PMS5003;62652;42.274;-71.436;2024-01-30T03:26:00;5.57;5.07;3.00
64861;PMS5003;62652;42.274;-71.436;2024-01-30T03:27:00;5.63;5.43;3.00
64861;PMS5003;62652;42.274;-71.436;2024-01-30T03:28:00;6.00;5.50;3.27
64861;PMS5003;62652;42.274;-71.436;2024-01-30T03:29:00;9.00;5.67;2.43
64861;PMS5003;62652;42.274;-71.436;2024-01-30T03:30:00;6.53;5.23;3.20
64861;PMS5003;62652;42.274;-71.436;2024-01-30T03:31:00;5.87;5.70;2.97
64861;PMS5003;62652;42.274;-71.436;2024-01-30T03:32:00;5.50;5.37;2.97
64861;PMS5003;62652;42.274;-71.436;2024-01-30T03:33:00;6.50;5.27;2.33
64861;PMS5003;62652;42.274;-71.436;2024-01-30T03:34:00;4.37;4.37;3.00
64861;PMS5003;62652;42.274;-71.436;2024-01-30T03:35:00;4.00;3.83;2.33
64861;PMS5003;62652;42.274;-71.436;2024-01-30T03:36:03;4.53;4.00;3.00
64861;PMS5003;62652;42.274;-71.436;2024-01-30T03:37:00;3.10;3.00;2.00
64861;PMS5003;62652;42.274;-71.436;2024-01-30T03:38:00;5.80;5.47;3.03
64861;PMS5003;62652;42.274;-71.436;2024-01-30T03:39:00;5.87;5.00;3.00
64861;PMS5003;62652;42.274;-71.436;2024-01-30T03:40:01;5.73;4.63;2.33
64861;PMS5003;62652;42.274;-71.436;2024-01-30T03:41:00;4.70;4.63;2.90
64861;PMS5003;62652;42.274;-71.436;2024-01-30T03:42:00;5.73;4.40;2.00
64861;PMS5003;62652;42.274;-71.436;2024-01-30T03:43:00;8.00;6.40;3.07
64861;PMS5003;62652;42.274;-71.436;2024-01-30T03:44:00;5.47;5.37;3.10
64861;PMS5003;62652;42.274;-71.436;2024-01-30T03:45:00;2.90;2.90;1.87
64861;PMS5003;62652;42.274;-71.436;2024-01-30T03:46:01;5.57;5.30;3.00
64861;PMS5003;62652;42.274;-71.436;2024-01-30T03:47:00;4.73;4.73;2.07
64861;PMS5003;62652;42.274;-71.436;2024-01-30T03:48:00;5.87;5.47;3.30
64861;PMS5003;62652;42.274;-71.436;2024-01-30T03:49:00;4.90;4.90;3.00
64861;PMS5003;62652;42.274;-71.436;2024-01-30T03:50:00;4.87;4.30;3.00
64861;PMS5003;62652;42.274;-71.436;2024-01-30T03:51:01;5.80;4.33;2.57
64861;PMS5003;62652;42.274;-71.436;2024-01-30T03:52:00;4.53;4.33;2.50
64861;PMS5003;62652;42.274;-71.436;2024-01-30T03:53:00;4.23;4.23;2.50
64861;PMS5003;62652;42.274;-71.436;2024-01-30T03:54:00;6.00;5.57;3.43
64861;PMS5003;62652;42.274;-71.436;2024-01-30T03:55:00;8.50;6.13;3.57
64861;PMS5003;62652;42.274;-71.436;2024-01-30T03:56:00;5.80;5.10;2.80
64861;PMS5003;62652;42.274;-71.436;2024-01-30T03:57:00;4.67;4.00;1.73
64861;PMS5003;62652;42.274;-71.436;2024-01-30T03:58:00;5.13;4.53;2.80
64861;PMS5003;62652;42.274;-71.436;2024-01-30T03:59:00;4.03;4.03;2.80
64861;PMS5003;62652;42.274;-71.436;2024-01-30T04:00:00;4.53;4.53;2.87
64861;PMS5003;62652;42.274;-71.436;2024-01-30T04:01:00;8.63;5.60;3.40
64861;PMS5003;62652;42.274;-71.436;2024-01-30T04:02:02;4.37;4.00;2.33
64861;PMS5003;62652;42.274;-71.436;2024-01-30T04:03:00;5.87;5.27;2.60
64861;PMS5003;62652;42.274;-71.436;2024-01-30T04:04:00;4.80;4.00;2.63
64861;PMS5003;62652;42.274;-71.436;2024-01-30T04:05:00;4.63;3.87;2.00
64861;PMS5003;62652;42.274;-71.436;2024-01-30T04:06:00;4.90;4.80;2.67
64861;PMS5003;62652;42.274;-71.436;2024-01-30T04:07:00;4.20;3.97;2.60
64861;PMS5003;62652;42.274;-71.436;2024-01-30T04:08:00;4.60;4.37;2.43
64861;PMS5003;62652;42.274;-71.436;2024-01-30T04:09:00;5.40;5.03;2.00
64861;PMS5003;62652;42.274;-71.436;2024-01-30T04:10:00;4.10;4.10;2.10
64861;PMS5003;62652;42.274;-71.436;2024-01-30T04:11:02;4.93;4.03;2.87
64861;PMS5003;62652;42.274;-71.436;2024-01-30T04:12:00;5.03;5.03;2.83
64861;PMS5003;62652;42.274;-71.436;2024-01-30T04:13:00;4.77;4.00;2.90
64861;PMS5003;62652;42.274;-71.436;2024-01-30T04:14:00;5.40;5.10;3.00
64861;PMS5003;62652;42.274;-71.436;2024-01-30T04:15:00;4.17;4.00;3.00
64861;PMS5003;62652;42.274;-71.436;2024-01-30T04:16:00;7.43;7.37;3.50
64861;PMS5003;62652;42.274;-71.436;2024-01-30T04:17:00;5.97;5.87;2.77
64861;PMS5003;62652;42.274;-71.436;2024-01-30T04:18:00;4.90;4.50;3.10
64861;PMS5003;62652;42.274;-71.436;2024-01-30T04:19:00;3.67;3.67;2.13
64861;PMS5003;62652;42.274;-71.436;2024-01-30T04:20:00;7.63;5.33;3.47
64861;PMS5003;62652;42.274;-71.436;2024-01-30T04:21:00;3.87;3.33;1.87
64861;PMS5003;62652;42.274;-71.436;2024-01-30T04:22:00;5.87;5.87;3.00
64861;PMS5003;62652;42.274;-71.436;2024-01-30T04:23:00;5.60;4.67;3.00
64861;PMS5003;62652;42.274;-71.436;2024-01-30T04:24:00;4.87;4.57;2.27
64861;PMS5003;62652;42.274;-71.436;2024-01-30T04:25:00;4.97;4.53;3.00
64861;PMS5003;62652;42.274;-71.436;2024-01-30T04:26:00;4.73;4.50;2.57
64861;PMS5003;62652;42.274;-71.436;2024-01-30T04:27:00;5.23;4.00;3.00
64861;PMS5003;62652;42.274;-71.436;2024-01-30T04:28:00;4.33;3.90;2.03
64861;PMS5003;62652;42.274;-71.436;2024-01-30T04:29:00;4.97;4.57;2.73
64861;PMS5003;62652;42.274;-71.436;2024-01-30T04:30:00;6.60;6.03;3.63
64861;PMS5003;62652;42.274;-71.436;2024-01-30T04:31:00;4.20;3.67;2.03
64861;PMS5003;62652;42.274;-71.436;2024-01-30T04:32:00;4.60;3.93;2.53
64861;PMS5003;62652;42.274;-71.436;2024-01-30T04:33:00;8.80;8.20;3.60
64861;PMS5003;62652;42.274;-71.436;2024-01-30T04:34:00;6.53;4.63;2.80
64861;PMS5003;62652;42.274;-71.436;2024-01-30T04:35:00;8.00;5.17;3.10
64861;PMS5003;62652;42.274;-71.436;2024-01-30T04:36:00;4.73;4.73;2.83
64861;PMS5003;62652;42.274;-71.436;2024-01-30T04:37:00;5.67;5.60;3.00
64861;PMS5003;62652;42.274;-71.436;2024-01-30T04:38:00;5.90;4.90;3.17
64861;PMS5003;62652;42.274;-71.436;2024-01-30T04:39:00;4.33;4.33;3.10
64861;PMS5003;62652;42.274;-71.436;2024-01-30T04:40:00;3.50;3.50;2.23
64861;PMS5003;62652;42.274;-71.436;2024-01-30T04:41:00;5.77;5.37;3.07
64861;PMS5003;62652;42.274;-71.436;2024-01-30T04:42:00;7.97;5.93;3.77
64861;PMS5003;62652;42.274;-71.436;2024-01-30T04:43:00;6.20;5.10;3.00
64861;PMS5003;62652;42.274;-71.436;2024-01-30T04:44:00;6.77;6.30;3.60
64861;PMS5003;62652;42.274;-71.436;2024-01-30T04:45:00;4.10;4.10;3.00
64861;PMS5003;62652;42.274;-71.436;2024-01-30T04:46:00;8.00;5.93;3.43
64861;PMS5003;62652;42.274;-71.436;2024-01-30T04:47:00;5.63;4.70;3.20
64861;PMS5003;62652;42.274;-71.436;2024-01-30T04:48:00;5.60;5.30;3.00
64861;PMS5003;62652;42.274;-71.436;2024-01-30T04:49:00;5.30;4.67;2.93
64861;PMS5003;62652;42.274;-71.436;2024-01-30T04:50:00;6.13;5.70;3.73
64861;PMS5003;62652;42.274;-71.436;2024-01-30T04:51:00;5.47;4.93;3.37
64861;PMS5003;62652;42.274;-71.436;2024-01-30T04:52:00;5.83;5.33;3.43
64861;PMS5003;62652;42.274;-71.436;2024-01-30T04:53:00;4.63;4.60;3.17
64861;PMS5003;62652;42.274;-71.436;2024-01-30T04:54:00;6.17;5.10;3.17
64861;PMS5003;62652;42.274;-71.436;2024-01-30T04:55:00;6.70;6.43;3.07
64861;PMS5003;62652;42.274;-71.436;2024-01-30T04:56:00;4.83;4.83;3.23
64861;PMS5003;62652;42.274;-71.436;2024-01-30T04:57:00;4.63;4.63;3.00
64861;PMS5003;62652;42.274;-71.436;2024-01-30T04:58:00;6.70;5.67;3.43
64861;PMS5003;62652;42.274;-71.436;2024-01-30T04:59:00;6.57;4.63;3.00
64861;PMS5003;62652;42.274;-71.436;2024-01-30T05:00:00;5.50;5.50;3.53
64861;PMS5003;62652;42.274;-71.436;2024-01-30T05:01:00;6.17;5.30;3.27
64861;PMS5003;62652;42.274;-71.436;2024-01-30T05:02:00;8.43;6.83;4.00
64861;PMS5003;62652;42.274;-71.436;2024-01-30T05:03:00;7.20;6.23;3.33
64861;PMS5003;62652;42.274;-71.436;2024-01-30T05:04:00;8.63;7.80;4.30
64861;PMS5003;62652;42.274;-71.436;2024-01-30T05:05:00;7.80;6.40;4.70
64861;PMS5003;62652;42.274;-71.436;2024-01-30T05:06:00;7.53;6.10;3.00
64861;PMS5003;62652;42.274;-71.436;2024-01-30T05:07:00;7.60;6.40;4.30
64861;PMS5003;62652;42.274;-71.436;2024-01-30T05:08:00;8.00;6.50;3.93
64861;PMS5003;62652;42.274;-71.436;2024-01-30T05:09:00;5.73;5.27;3.40
64861;PMS5003;62652;42.274;-71.436;2024-01-30T05:10:00;6.57;6.23;3.97
64861;PMS5003;62652;42.274;-71.436;2024-01-30T05:11:00;6.43;5.30;3.13
64861;PMS5003;62652;42.274;-71.436;2024-01-30T05:12:00;6.27;5.27;2.50
64861;PMS5003;62652;42.274;-71.436;2024-01-30T05:13:00;6.23;6.23;4.17
64861;PMS5003;62652;42.274;-71.436;2024-01-30T05:14:00;7.83;7.33;4.20
64861;PMS5003;62652;42.274;-71.436;2024-01-30T05:15:00;6.60;6.13;4.00
64861;PMS5003;62652;42.274;-71.436;2024-01-30T05:16:01;8.97;7.40;4.23
64861;PMS5003;62652;42.274;-71.436;2024-01-30T05:17:00;6.97;6.23;4.03
64861;PMS5003;62652;42.274;-71.436;2024-01-30T05:18:00;6.27;6.00;4.10
64861;PMS5003;62652;42.274;-71.436;2024-01-30T05:19:00;5.37;5.07;3.27
64861;PMS5003;62652;42.274;-71.436;2024-01-30T05:20:00;5.43;5.13;3.90
64861;PMS5003;62652;42.274;-71.436;2024-01-30T05:21:01;7.73;7.73;4.10
64861;PMS5003;62652;42.274;-71.436;2024-01-30T05:22:00;14.50;14.30;9.10
64861;PMS5003;62652;42.274;-71.436;2024-01-30T05:23:00;13.93;11.20;6.67
64861;PMS5003;62652;42.274;-71.436;2024-01-30T05:24:00;21.10;19.70;12.47
64861;PMS5003;62652;42.274;-71.436;2024-01-30T05:25:00;18.73;16.80;10.87
64861;PMS5003;62652;42.274;-71.436;2024-01-30T05:26:00;11.80;10.57;6.43
64861;PMS5003;62652;42.274;-71.436;2024-01-30T05:27:00;12.17;11.43;6.40
64861;PMS5003;62652;42.274;-71.436;2024-01-30T05:28:00;11.43;10.33;4.47
64861;PMS5003;62652;42.274;-71.436;2024-01-30T05:29:00;8.53;8.13;3.67
64861;PMS5003;62652;42.274;-71.436;2024-01-30T05:30:00;6.37;5.97;3.63
64861;PMS5003;62652;42.274;-71.436;2024-01-30T05:31:00;7.50;6.80;4.17
64861;PMS5003;62652;42.274;-71.436;2024-01-30T05:32:00;6.60;5.60;3.43
64861;PMS5003;62652;42.274;-71.436;2024-01-30T05:33:00;6.70;6.07;3.30
64861;PMS5003;62652;42.274;-71.436;2024-01-30T05:34:00;8.80;8.70;3.97
64861;PMS5003;62652;42.274;-71.436;2024-01-30T05:35:00;6.43;5.83;3.13
64861;PMS5003;62652;42.274;-71.436;2024-01-30T05:36:00;5.30;5.17;3.00
64861;PMS5003;62652;42.274;-71.436;2024-01-30T05:37:00;9.60;6.40;3.33
64861;PMS5003;62652;42.274;-71.436;2024-01-30T05:38:00;6.40;5.97;3.47
64861;PMS5003;62652;42.274;-71.436;2024-01-30T05:39:00;5.03;5.03;3.33
64861;PMS5003;62652;42.274;-71.436;2024-01-30T05:40:00;7.97;6.53;4.60